Concord, Arkansas
Current Conditions -  °F | °C
As of 2:35 AM on Sunday 21 Dec 2014 (Local Time) from KBVX Reporting Station
Overcast Overcast  
Wind Chill: 37°   Ceiling: 4100
Heat Index: 37°   Visibility: 3mi
Dew Point: 36°   Wind: 0mph
Humidity: 93%   Direction: NA
Pressure: 30.22"   Gusts: NA
Location:  35.66°N, 91.85°W
Report Text: KBVX 210835Z AUTO 00000KT 3SM SCT022 OVC041 03/02 A3022 RMK AO1
Loading
Personal Weather Stations






























Interactive Weather Map New forecast layout! Learn more

10-Day Weather Forecast

Advertisements
Track Severe Weather on mobile